Time;durP1;ratioP1;P1;durP2;ratioP2;P2;SDS_P1;SDS_P2;PMS_P1;PMS_P2;Temp;Humidity;BMP_temperature;BMP_pressure;BME280_temperature;BME280_humidity;BME280_pressure;Samples;Min_cycle;Max_cycle;Signal;HPM_P1;HPM_P2
2023/02/10 00:00:05;;;;;;;9.95;4.93;;;5.00;56.90;;;;;;4929085;29;20123;-77
2023/02/10 00:02:31;;;;;;;13.82;4.60;;;5.00;56.90;;;;;;4931072;29;20376;-76
2023/02/10 00:04:57;;;;;;;10.77;4.80;;;5.00;56.90;;;;;;4936507;28;20047;-75
2023/02/10 00:07:23;;;;;;;8.27;4.72;;;5.00;57.00;;;;;;4917912;29;20612;-76
2023/02/10 00:09:49;;;;;;;9.23;4.57;;;4.90;56.90;;;;;;4925670;29;20036;-75
2023/02/10 00:12:16;;;;;;;9.90;5.03;;;4.90;56.90;;;;;;4926337;29;20409;-77
2023/02/10 00:14:42;;;;;;;7.97;4.68;;;4.90;56.90;;;;;;4928710;29;20031;-77
2023/02/10 00:17:08;;;;;;;12.70;5.22;;;4.80;56.80;;;;;;4920403;29;20042;-77
2023/02/10 00:19:34;;;;;;;9.25;4.80;;;4.80;56.80;;;;;;4929752;29;20035;-79
2023/02/10 00:22:01;;;;;;;8.00;3.88;;;4.70;56.70;;;;;;4932383;29;20047;-76
2023/02/10 00:24:28;;;;;;;10.80;4.93;;;4.70;56.70;;;;;;4932316;29;20088;-77
2023/02/10 00:26:54;;;;;;;8.40;4.85;;;4.70;57.30;;;;;;4933178;29;20032;-77
2023/02/10 00:29:20;;;;;;;11.00;4.93;;;4.60;56.60;;;;;;4933285;29;20110;-76
2023/02/10 00:31:46;;;;;;;11.30;5.30;;;4.60;56.60;;;;;;4932157;29;20146;-77
2023/02/10 00:34:14;;;;;;;8.80;4.70;;;4.60;56.70;;;;;;4927565;29;20035;-77
2023/02/10 00:36:40;;;;;;;9.35;5.00;;;4.50;56.60;;;;;;4916197;29;20210;-77
2023/02/10 00:39:11;;;;;;;9.57;4.95;;;4.50;57.10;;;;;;4927056;29;20036;-77
2023/02/10 00:41:37;;;;;;;14.10;5.95;;;4.50;56.60;;;;;;4929927;29;20127;-78
2023/02/10 00:44:03;;;;;;;9.13;5.35;;;4.50;56.60;;;;;;4931345;29;20400;-78
2023/02/10 00:46:29;;;;;;;7.60;4.45;;;4.40;56.40;;;;;;4926809;29;20043;-76
2023/02/10 00:48:57;;;;;;;10.65;4.60;;;4.40;56.40;;;;;;4925448;29;20058;-76
2023/02/10 00:51:23;;;;;;;9.68;4.05;;;4.40;56.40;;;;;;4932563;29;20586;-77
2023/02/10 00:53:52;;;;;;;10.63;4.85;;;4.40;56.50;;;;;;4932277;29;20445;-78
2023/02/10 00:56:20;;;;;;;8.93;5.10;;;4.30;56.30;;;;;;4931380;29;20038;-76
2023/02/10 00:58:47;;;;;;;7.90;4.30;;;4.30;56.40;;;;;;4931876;29;20032;-77
2023/02/10 01:01:13;;;;;;;8.52;4.40;;;4.30;56.40;;;;;;4915782;29;20448;-77
2023/02/10 01:03:39;;;;;;;8.70;4.80;;;4.20;56.30;;;;;;4919878;29;20094;-75
2023/02/10 01:06:06;;;;;;;8.00;4.47;;;4.20;56.30;;;;;;4926204;29;20094;-76
2023/02/10 01:08:33;;;;;;;10.02;5.05;;;4.20;56.40;;;;;;4913683;29;20496;-77
2023/02/10 01:11:05;;;;;;;8.73;5.50;;;4.20;56.40;;;;;;4924679;29;20182;-77
2023/02/10 01:13:35;;;;;;;11.83;5.10;;;4.10;56.20;;;;;;4935559;29;20039;-76
2023/02/10 01:16:05;;;;;;;10.18;4.57;;;4.10;56.30;;;;;;4928054;29;20314;-76
2023/02/10 01:18:31;;;;;;;10.43;4.57;;;4.00;56.10;;;;;;4917969;29;20423;-76
2023/02/10 01:20:57;;;;;;;8.77;4.57;;;4.00;56.20;;;;;;4927900;29;20028;-76
2023/02/10 01:23:23;;;;;;;11.68;5.18;;;4.00;56.20;;;;;;4923343;29;20041;-76
2023/02/10 01:25:49;;;;;;;7.20;4.53;;;3.90;56.00;;;;;;4930149;29;20317;-76
2023/02/10 01:28:15;;;;;;;8.38;4.53;;;3.90;56.10;;;;;;4931842;29;20067;-76
2023/02/10 01:30:41;;;;;;;8.48;5.38;;;3.90;56.10;;;;;;4928651;29;20127;-76
2023/02/10 01:33:07;;;;;;;10.75;5.15;;;3.90;56.20;;;;;;4930915;29;20028;-76
2023/02/10 01:35:39;;;;;;;10.27;4.90;;;3.80;56.00;;;;;;4928965;29;20027;-76
2023/02/10 01:38:05;;;;;;;9.05;4.07;;;3.80;56.00;;;;;;4914021;29;20051;-77
2023/02/10 01:40:31;;;;;;;10.45;5.22;;;3.80;56.10;;;;;;4928424;29;20111;-77
2023/02/10 01:42:58;;;;;;;11.65;5.07;;;3.70;55.90;;;;;;4929947;29;20098;-77
2023/02/10 01:45:34;;;;;;;13.07;5.28;;;3.70;55.90;;;;;;4912674;29;20512;-77
2023/02/10 01:48:00;;;;;;;10.45;5.20;;;3.60;55.80;;;;;;4919219;29;20040;-77
2023/02/10 01:50:31;;;;;;;8.60;4.72;;;3.70;56.00;;;;;;4926622;29;20493;-76
2023/02/10 01:52:59;;;;;;;9.63;4.45;;;3.60;55.80;;;;;;4928264;29;20520;-76
2023/02/10 01:55:33;;;;;;;9.40;4.72;;;3.60;56.40;;;;;;4911543;29;20107;-77
2023/02/10 01:58:01;;;;;;;9.40;4.82;;;3.50;55.70;;;;;;4931093;29;20066;-77
2023/02/10 02:00:27;;;;;;;8.82;4.70;;;3.60;55.90;;;;;;4935510;29;20039;-76
2023/02/10 02:02:53;;;;;;;10.75;4.35;;;3.50;55.70;;;;;;4929321;29;20576;-76
2023/02/10 02:05:41;;;;;;;7.18;4.38;;;3.50;55.70;;;;;;4939283;29;20519;-77
2023/02/10 02:08:22;;;;;;;12.32;4.72;;;3.40;55.60;;;;;;4922810;29;20245;-76
2023/02/10 02:10:57;;;;;;;11.13;5.00;;;3.40;55.60;;;;;;4933047;28;20098;-77
2023/02/10 02:13:28;;;;;;;9.65;4.88;;;3.40;55.60;;;;;;4937813;29;20119;-76
2023/02/10 02:16:12;;;;;;;9.05;4.45;;;3.40;55.60;;;;;;4926885;29;20048;-77
2023/02/10 02:19:07;;;;;;;11.73;4.57;;;3.30;55.50;;;;;;4928604;29;20462;-78
2023/02/10 02:21:48;;;;;;;10.50;4.88;;;3.30;55.50;;;;;;4914178;29;20376;-78
2023/02/10 02:24:51;;;;;;;9.60;4.80;;;3.20;55.40;;;;;;4939207;29;20222;-78
2023/02/10 02:27:27;;;;;;;;;;;3.20;55.40;;;;;;4933958;28;20047;-78
2023/02/10 02:30:29;;;;;;;6.55;3.85;;;3.20;55.40;;;;;;4934011;29;20371;-77
2023/02/10 02:33:14;;;;;;;7.43;3.95;;;3.20;55.40;;;;;;4918812;29;20044;-77
2023/02/10 02:35:49;;;;;;;10.30;3.92;;;3.10;55.30;;;;;;4926636;29;20384;-78
2023/02/10 02:38:16;;;;;;;6.00;4.13;;;3.10;55.30;;;;;;4937084;29;20054;-78
2023/02/10 02:40:41;;;;;;;5.97;3.40;;;3.10;55.30;;;;;;4923164;29;20027;-78
2023/02/10 02:43:08;;;;;;;6.45;3.92;;;3.10;55.40;;;;;;4924668;29;20070;-77
2023/02/10 02:46:03;;;;;;;8.10;4.13;;;3.00;55.20;;;;;;4924555;29;20484;-77
2023/02/10 02:48:54;;;;;;;7.85;4.93;;;3.00;55.20;;;;;;4926410;29;20251;-78
2023/02/10 02:51:29;;;;;;;8.27;4.20;;;3.00;55.30;;;;;;4926086;29;20032;-78
2023/02/10 02:54:10;;;;;;;7.28;4.18;;;3.00;55.30;;;;;;4922243;29;20050;-79
2023/02/10 02:57:03;;;;;;;8.75;5.07;;;3.00;55.30;;;;;;4927171;29;20070;-77
2023/02/10 02:59:36;;;;;;;9.63;4.50;;;2.90;55.10;;;;;;4927630;29;20067;-77
2023/02/10 03:02:07;;;;;;;8.80;4.22;;;2.90;55.70;;;;;;4920250;29;20094;-77
2023/02/10 03:04:34;;;;;;;9.32;4.07;;;2.90;55.10;;;;;;4927521;29;20067;-77
2023/02/10 03:07:02;;;;;;;7.85;4.18;;;2.90;55.20;;;;;;4920336;29;20036;-78
2023/02/10 03:09:28;;;;;;;7.75;4.05;;;2.80;55.00;;;;;;4924692;29;20403;-78
2023/02/10 03:11:54;;;;;;;6.85;3.55;;;2.80;55.10;;;;;;4921904;29;20056;-78
2023/02/10 03:14:20;;;;;;;11.65;4.00;;;2.80;55.10;;;;;;4929296;29;20042;-77
2023/02/10 03:16:46;;;;;;;8.57;3.92;;;2.80;55.10;;;;;;4927292;29;20043;-77
2023/02/10 03:19:12;;;;;;;7.00;3.47;;;2.70;54.90;;;;;;4919543;29;20047;-77
2023/02/10 03:21:37;;;;;;;9.63;3.85;;;2.70;54.90;;;;;;4918882;29;20070;-76
2023/02/10 03:24:04;;;;;;;6.55;3.83;;;2.70;55.00;;;;;;4918714;29;20038;-76
2023/02/10 03:26:30;;;;;;;8.23;3.63;;;2.70;55.00;;;;;;4926882;29;20102;-76
2023/02/10 03:28:57;;;;;;;7.80;3.75;;;2.70;55.00;;;;;;4928315;29;20102;-77
2023/02/10 03:31:23;;;;;;;7.18;4.03;;;2.70;55.00;;;;;;4924690;29;20054;-78
2023/02/10 03:33:49;;;;;;;7.00;4.07;;;2.60;55.40;;;;;;4929087;29;20035;-77
2023/02/10 03:36:15;;;;;;;8.85;4.43;;;2.60;54.90;;;;;;4926257;29;20536;-75
2023/02/10 03:38:42;;;;;;;6.80;4.40;;;2.60;54.90;;;;;;4924955;29;20120;-76
2023/02/10 03:41:08;;;;;;;8.07;3.55;;;2.60;54.90;;;;;;4919543;29;20045;-77
2023/02/10 03:43:34;;;;;;;10.60;4.30;;;2.60;54.90;;;;;;4925296;29;20051;-77
2023/02/10 03:46:02;;;;;;;7.50;3.25;;;2.60;54.90;;;;;;4927649;29;20376;-77
2023/02/10 03:48:31;;;;;;;9.55;4.30;;;2.50;54.70;;;;;;4911252;29;20028;-77
2023/02/10 03:50:58;;;;;;;8.27;3.92;;;2.50;54.70;;;;;;4927394;29;20492;-77
2023/02/10 03:53:24;;;;;;;6.80;3.92;;;2.50;54.70;;;;;;4921926;29;20059;-77
2023/02/10 03:55:50;;;;;;;8.15;4.03;;;2.40;54.60;;;;;;4925228;29;20879;-78
2023/02/10 03:58:16;;;;;;;6.30;4.10;;;2.40;55.10;;;;;;4930854;29;20032;-77
2023/02/10 04:00:42;;;;;;;8.82;4.00;;;2.50;54.80;;;;;;4926716;29;20392;-78
2023/02/10 04:03:08;;;;;;;8.32;3.80;;;2.40;54.60;;;;;;4932424;29;20063;-78
2023/02/10 04:05:34;;;;;;;6.93;3.70;;;2.40;54.60;;;;;;4932082;29;20036;-78
2023/02/10 04:08:00;;;;;;;9.40;4.25;;;2.40;54.70;;;;;;4921579;29;20122;-78
2023/02/10 04:10:27;;;;;;;8.38;3.90;;;2.30;54.50;;;;;;4929154;29;20032;-77
2023/02/10 04:12:53;;;;;;;8.18;4.85;;;2.30;54.50;;;;;;4931780;29;20614;-77
2023/02/10 04:15:19;;;;;;;5.78;3.47;;;2.30;54.50;;;;;;4925404;29;20038;-79
2023/02/10 04:17:45;;;;;;;6.28;3.50;;;2.30;54.50;;;;;;4932874;29;20031;-79
2023/02/10 04:20:11;;;;;;;8.38;3.67;;;2.30;54.60;;;;;;4932321;29;20077;-77
2023/02/10 04:22:38;;;;;;;7.20;4.68;;;2.20;54.30;;;;;;4924941;29;20107;-77
2023/02/10 04:25:04;;;;;;;6.78;4.00;;;2.20;54.40;;;;;;4924668;29;20481;-76
2023/02/10 04:27:30;;;;;;;7.07;3.67;;;2.20;54.40;;;;;;4929501;29;20900;-77
2023/02/10 04:29:56;;;;;;;8.80;3.67;;;2.20;54.40;;;;;;4923462;29;20056;-77
2023/02/10 04:32:22;;;;;;;9.50;4.07;;;2.20;54.40;;;;;;4933139;29;20035;-77
2023/02/10 04:34:50;;;;;;;7.20;3.53;;;2.20;54.40;;;;;;4932196;29;20118;-77
2023/02/10 04:37:16;;;;;;;8.13;5.07;;;2.20;54.50;;;;;;4911599;29;20119;-76
2023/02/10 04:39:42;;;;;;;11.18;4.00;;;2.20;54.50;;;;;;4923487;29;20432;-76
2023/02/10 04:42:08;;;;;;;8.13;4.05;;;2.10;54.30;;;;;;4931521;29;20411;-76
2023/02/10 04:44:34;;;;;;;7.93;4.63;;;2.10;54.30;;;;;;4921042;29;20028;-76
2023/02/10 04:47:00;;;;;;;9.43;4.20;;;2.10;54.30;;;;;;4931596;29;20039;-76
2023/02/10 04:49:26;;;;;;;10.43;3.92;;;2.10;54.30;;;;;;4930101;29;20424;-77
2023/02/10 04:51:53;;;;;;;12.43;3.75;;;2.10;54.30;;;;;;4932176;29;20075;-76
2023/02/10 04:54:20;;;;;;;9.05;3.88;;;2.10;54.30;;;;;;4919009;29;20064;-76
2023/02/10 04:56:46;;;;;;;8.88;4.55;;;2.00;54.10;;;;;;4922445;29;20075;-76
2023/02/10 04:59:12;;;;;;;10.15;3.97;;;2.00;54.10;;;;;;4922681;29;20063;-77
2023/02/10 05:01:38;;;;;;;8.45;3.83;;;2.00;54.20;;;;;;4930888;29;20178;-76
2023/02/10 05:04:04;;;;;;;7.20;3.78;;;2.00;54.20;;;;;;4924810;29;20580;-76
2023/02/10 05:06:30;;;;;;;7.95;3.60;;;1.90;54.00;;;;;;4926114;29;20107;-75
2023/02/10 05:08:56;;;;;;;9.30;4.22;;;1.90;54.00;;;;;;4922449;29;20158;-76
2023/02/10 05:11:22;;;;;;;9.55;4.68;;;1.90;54.10;;;;;;4929732;29;20061;-77
2023/02/10 05:13:48;;;;;;;9.85;4.07;;;1.90;54.10;;;;;;4926311;29;20161;-77
2023/02/10 05:16:15;;;;;;;8.20;3.80;;;1.90;54.10;;;;;;4930873;29;20043;-77
2023/02/10 05:18:42;;;;;;;8.45;4.40;;;1.90;54.20;;;;;;4924034;29;20046;-77
2023/02/10 05:21:09;;;;;;;10.00;4.07;;;1.90;54.10;;;;;;4930156;29;20028;-75
2023/02/10 05:23:36;;;;;;;10.73;4.22;;;1.80;53.90;;;;;;4929544;29;20126;-76
2023/02/10 05:26:02;;;;;;;7.63;3.70;;;1.80;54.00;;;;;;4928447;29;20035;-77
2023/02/10 05:28:28;;;;;;;7.97;4.30;;;1.80;54.00;;;;;;4902596;29;20211;-76
2023/02/10 05:30:54;;;;;;;9.45;4.05;;;1.80;54.00;;;;;;4930516;29;20040;-76
2023/02/10 05:33:20;;;;;;;6.55;3.65;;;1.80;54.00;;;;;;4929840;29;20035;-76
2023/02/10 05:35:46;;;;;;;8.98;4.30;;;1.80;54.00;;;;;;4931146;29;20051;-78
2023/02/10 05:38:12;;;;;;;8.77;4.25;;;1.80;54.00;;;;;;4925028;29;20042;-78
2023/02/10 05:40:38;;;;;;;9.75;4.35;;;1.80;54.00;;;;;;4924056;29;20027;-76
2023/02/10 05:43:04;;;;;;;8.32;4.07;;;1.70;53.90;;;;;;4931009;29;20530;-79
2023/02/10 05:45:31;;;;;;;6.50;4.28;;;1.80;54.00;;;;;;4920895;29;20036;-78
2023/02/10 05:47:56;;;;;;;8.27;4.50;;;1.70;53.80;;;;;;4927056;29;20035;-78
2023/02/10 05:50:22;;;;;;;12.35;4.30;;;1.80;54.00;;;;;;4926947;29;20039;-78
2023/02/10 05:52:48;;;;;;;9.10;4.20;;;1.70;53.90;;;;;;4927637;29;20039;-77
2023/02/10 05:55:14;;;;;;;11.05;4.13;;;1.70;53.80;;;;;;4924720;29;20042;-78
2023/02/10 05:57:40;;;;;;;6.80;3.72;;;1.70;53.80;;;;;;4917611;29;20032;-75
2023/02/10 06:00:07;;;;;;;9.27;4.50;;;1.70;54.40;;;;;;4924712;29;20036;-76
2023/02/10 06:02:39;;;;;;;8.07;3.50;;;1.70;53.80;;;;;;4923343;29;20534;-76
2023/02/10 06:05:05;;;;;;;8.93;3.88;;;1.60;53.60;;;;;;4926017;29;20171;-76
2023/02/10 06:07:31;;;;;;;6.35;4.10;;;1.60;53.70;;;;;;4923312;29;20036;-77
2023/02/10 06:09:57;;;;;;;7.10;3.53;;;1.60;53.60;;;;;;4923314;29;20519;-79
2023/02/10 06:12:23;;;;;;;8.27;3.60;;;1.60;53.70;;;;;;4926634;29;20076;-79
2023/02/10 06:14:49;;;;;;;6.43;3.60;;;1.60;53.70;;;;;;4916316;29;20151;-79
2023/02/10 06:17:15;;;;;;;7.00;4.20;;;1.60;53.70;;;;;;4934972;29;20044;-76
2023/02/10 06:19:41;;;;;;;10.00;4.75;;;1.60;53.70;;;;;;4918404;29;20308;-79
2023/02/10 06:22:09;;;;;;;7.95;3.70;;;1.60;53.70;;;;;;4924882;29;20532;-82
2023/02/10 06:24:35;;;;;;;9.57;3.88;;;1.60;53.70;;;;;;4923757;29;20465;-79
2023/02/10 06:27:01;;;;;;;18.58;4.20;;;1.60;53.70;;;;;;4927022;29;20070;-79
2023/02/10 06:29:27;;;;;;;9.32;4.25;;;1.50;53.60;;;;;;4914700;29;20098;-80
2023/02/10 06:31:53;;;;;;;8.95;4.00;;;1.50;53.60;;;;;;4926165;29;20032;-79
2023/02/10 06:34:19;;;;;;;5.72;3.30;;;1.60;53.80;;;;;;4918428;29;20023;-79
2023/02/10 06:36:45;;;;;;;10.40;4.05;;;1.50;53.60;;;;;;4919770;29;20036;-79
2023/02/10 06:39:10;;;;;;;10.18;4.10;;;1.50;53.60;;;;;;4923508;29;20031;-79
2023/02/10 06:41:36;;;;;;;11.82;4.25;;;1.50;53.60;;;;;;4924494;29;20485;-78
2023/02/10 06:44:03;;;;;;;7.88;3.80;;;1.50;53.60;;;;;;4925992;29;20505;-79
2023/02/10 06:46:29;;;;;;;9.27;3.92;;;1.50;53.60;;;;;;4922472;29;20083;-81
2023/02/10 06:48:54;;;;;;;7.97;4.28;;;1.50;53.60;;;;;;4925881;29;20040;-79
2023/02/10 06:51:22;;;;;;;9.20;4.88;;;1.50;53.60;;;;;;4923848;29;20039;-80
2023/02/10 06:53:48;;;;;;;10.73;4.30;;;1.50;53.60;;;;;;4914797;29;20044;-80
2023/02/10 06:56:14;;;;;;;7.38;3.92;;;1.50;53.60;;;;;;4925053;29;20098;-80
2023/02/10 06:58:39;;;;;;;11.00;5.63;;;1.50;53.70;;;;;;4918392;29;20031;-80
2023/02/10 07:01:10;;;;;;;9.82;4.93;;;1.50;53.70;;;;;;4926621;29;20130;-76
2023/02/10 07:03:37;;;;;;;13.55;5.15;;;1.50;53.70;;;;;;4924150;29;20415;-81
2023/02/10 07:06:03;;;;;;;9.45;4.63;;;1.40;53.50;;;;;;4927419;29;20035;-78
2023/02/10 07:08:29;;;;;;;6.95;4.10;;;1.40;53.60;;;;;;4908902;29;20067;-76
2023/02/10 07:10:55;;;;;;;7.75;4.90;;;1.40;53.60;;;;;;4925475;29;20055;-78
2023/02/10 07:13:21;;;;;;;9.85;4.93;;;1.40;53.60;;;;;;4919915;29;20032;-80
2023/02/10 07:15:47;;;;;;;11.18;5.05;;;1.40;53.60;;;;;;4918599;29;20059;-80
2023/02/10 07:18:13;;;;;;;12.00;5.20;;;1.40;53.60;;;;;;4907491;29;20070;-81
2023/02/10 07:20:40;;;;;;;8.40;4.50;;;1.40;53.70;;;;;;4926791;29;20028;-81
2023/02/10 07:23:06;;;;;;;9.02;5.55;;;1.40;53.70;;;;;;4921301;29;20053;-78
2023/02/10 07:25:31;;;;;;;10.55;4.70;;;1.40;53.70;;;;;;4923804;29;20450;-78
2023/02/10 07:27:57;;;;;;;10.35;4.90;;;1.40;53.70;;;;;;4924795;29;20039;-76
2023/02/10 07:30:24;;;;;;;9.65;5.38;;;1.40;53.70;;;;;;4920474;29;20563;-78
2023/02/10 07:32:50;;;;;;;7.75;4.80;;;1.40;53.70;;;;;;4923296;29;20126;-79
2023/02/10 07:35:16;;;;;;;10.85;5.70;;;1.40;53.70;;;;;;4928855;29;20164;-83
2023/02/10 07:37:42;;;;;;;14.32;6.05;;;1.40;53.70;;;;;;4925387;29;20090;-83
2023/02/10 07:40:08;;;;;;;17.63;5.07;;;1.40;53.70;;;;;;4926793;29;20036;-81
2023/02/10 07:42:34;;;;;;;11.45;5.55;;;1.40;53.70;;;;;;4927278;29;20071;-77
2023/02/10 07:45:23;;;;;;;9.35;5.03;;;1.40;53.70;;;;;;4923051;29;20028;-93
2023/02/10 07:47:49;;;;;;;14.23;6.22;;;1.40;53.80;;;;;;4928306;29;20042;-78
2023/02/10 07:50:15;;;;;;;9.15;5.35;;;1.50;54.00;;;;;;4927427;29;20027;-79
2023/02/10 07:52:41;;;;;;;11.60;5.60;;;1.60;54.70;;;;;;4927290;29;20357;-79
2023/02/10 07:55:07;;;;;;;14.95;6.38;;;1.60;54.00;;;;;;4927492;29;20036;-78
2023/02/10 07:57:33;;;;;;;13.45;6.22;;;1.70;54.20;;;;;;4923716;29;20476;-79
2023/02/10 07:59:59;;;;;;;13.95;7.50;;;1.60;54.00;;;;;;4924279;29;20039;-79
2023/02/10 08:02:25;;;;;;;10.93;5.80;;;1.70;54.20;;;;;;4915126;29;20165;-81
2023/02/10 08:04:54;;;;;;;14.50;6.45;;;1.70;54.30;;;;;;4922404;29;20035;-80
2023/02/10 08:07:20;;;;;;;12.27;5.95;;;1.80;54.50;;;;;;4923001;29;20067;-76
2023/02/10 08:09:45;;;;;;;12.30;6.63;;;1.90;54.60;;;;;;4925676;29;20737;-79
2023/02/10 08:12:11;;;;;;;10.85;5.68;;;2.00;54.80;;;;;;4927336;29;20036;-76
2023/02/10 08:14:37;;;;;;;13.45;6.70;;;2.10;55.20;;;;;;4918957;29;20043;-77
2023/02/10 08:17:03;;;;;;;12.80;6.18;;;2.30;55.90;;;;;;4928487;29;20136;-85
2023/02/10 08:19:29;;;;;;;15.15;6.53;;;2.60;56.20;;;;;;4917614;29;20088;-80
2023/02/10 08:21:55;;;;;;;13.55;6.25;;;2.80;56.10;;;;;;4928042;29;20047;-79
2023/02/10 08:24:21;;;;;;;12.45;6.25;;;3.00;56.10;;;;;;4927451;29;20480;-83
2023/02/10 08:26:47;;;;;;;9.07;5.38;;;3.00;55.80;;;;;;4930104;29;20039;-83
2023/02/10 08:29:13;;;;;;;12.43;7.03;;;3.10;55.90;;;;;;4928400;29;20066;-88
2023/02/10 08:31:39;;;;;;;11.13;6.57;;;3.10;55.90;;;;;;4919292;29;20075;-76
2023/02/10 08:34:05;;;;;;;13.52;6.22;;;3.20;56.10;;;;;;4925683;29;20028;-77
2023/02/10 08:36:32;;;;;;;11.88;5.93;;;3.20;56.10;;;;;;4922397;29;20051;-77
2023/02/10 08:38:58;;;;;;;17.25;7.25;;;3.30;56.20;;;;;;4925827;29;20062;-78
2023/02/10 08:41:25;;;;;;;12.52;6.22;;;3.30;56.20;;;;;;4929771;29;20487;-83
2023/02/10 08:43:51;;;;;;;10.30;6.00;;;3.30;56.10;;;;;;4930714;29;20058;-83
2023/02/10 08:46:18;;;;;;;12.02;6.35;;;3.40;56.30;;;;;;4931946;29;20082;-81
2023/02/10 08:48:44;;;;;;;9.43;5.43;;;3.40;56.20;;;;;;4928610;29;20083;-81
2023/02/10 08:51:12;;;;;;;10.50;5.32;;;3.50;56.30;;;;;;4927903;29;20031;-82
2023/02/10 08:53:38;;;;;;;13.35;5.53;;;3.60;56.40;;;;;;4937760;29;20483;-83
2023/02/10 08:56:08;;;;;;;13.23;5.88;;;3.60;56.30;;;;;;4930072;29;20039;-84
2023/02/10 08:58:34;;;;;;;10.15;5.32;;;3.60;56.30;;;;;;4925687;29;20028;-84
2023/02/10 09:01:07;;;;;;;10.60;5.13;;;3.70;56.40;;;;;;4926457;29;20400;-84
2023/02/10 09:03:34;;;;;;;10.18;5.95;;;3.70;56.30;;;;;;4924678;29;20539;-82
2023/02/10 09:06:00;;;;;;;10.18;4.93;;;3.80;56.40;;;;;;4927468;29;20135;-80
2023/02/10 09:08:25;;;;;;;9.38;5.07;;;3.90;56.50;;;;;;4927117;29;20090;-81
2023/02/10 09:10:51;;;;;;;11.85;5.03;;;4.00;56.60;;;;;;4923481;29;20063;-80
2023/02/10 09:13:17;;;;;;;8.50;4.63;;;4.10;56.70;;;;;;4930167;29;20634;-81
2023/02/10 09:15:43;;;;;;;9.88;4.85;;;4.20;56.80;;;;;;4929991;29;20099;-81
2023/02/10 09:18:10;;;;;;;14.85;5.60;;;4.30;56.80;;;;;;4925261;29;20058;-79
2023/02/10 09:20:36;;;;;;;7.55;4.43;;;4.30;56.70;;;;;;4921697;29;20059;-79
2023/02/10 09:23:02;;;;;;;10.40;4.65;;;4.50;56.90;;;;;;4939493;29;20035;-79
2023/02/10 09:25:28;;;;;;;10.98;4.55;;;4.60;57.00;;;;;;4932842;29;20455;-80
2023/02/10 09:27:57;;;;;;;9.20;4.80;;;4.70;57.00;;;;;;4939766;28;20215;-80
2023/02/10 09:30:26;;;;;;;12.35;5.55;;;4.80;57.10;;;;;;4926662;29;20048;-79
2023/02/10 09:32:53;;;;;;;7.53;4.15;;;4.90;57.10;;;;;;4938200;29;20114;-80
2023/02/10 09:35:19;;;;;;;9.68;5.13;;;5.00;57.10;;;;;;4921025;29;20031;-80
2023/02/10 09:37:46;;;;;;;10.93;5.40;;;5.10;57.20;;;;;;4923721;29;20035;-80
2023/02/10 09:40:21;;;;;;;11.80;4.43;;;5.20;57.20;;;;;;4925029;29;20042;-79
2023/02/10 09:43:05;;;;;;;12.40;5.07;;;5.30;57.30;;;;;;4927976;29;20174;-79
2023/02/10 09:45:37;;;;;;;12.27;4.93;;;5.40;57.30;;;;;;4926521;29;20886;-76
2023/02/10 09:48:18;;;;;;;10.30;4.10;;;5.50;57.40;;;;;;4929627;29;20809;-84
2023/02/10 09:51:14;;;;;;;11.27;4.35;;;5.60;57.70;;;;;;4927312;29;20086;-76
2023/02/10 09:53:40;;;;;;;12.68;4.40;;;5.90;58.50;;;;;;4929339;29;20027;-78
2023/02/10 09:56:13;;;;;;;11.55;4.80;;;6.10;58.50;;;;;;4930160;29;20070;-77
2023/02/10 09:58:42;;;;;;;;;;;6.20;58.40;;;;;;4928420;29;20034;-78
2023/02/10 10:01:15;;;;;;;9.70;3.90;;;6.40;58.60;;;;;;4929499;29;19921;-81
2023/02/10 10:04:12;;;;;;;10.23;4.72;;;6.50;58.40;;;;;;4925462;29;20496;-82
2023/02/10 10:06:56;;;;;;;11.85;4.18;;;6.70;58.70;;;;;;4929303;29;20039;-79
2023/02/10 10:09:49;;;;;;;7.57;4.28;;;6.80;58.60;;;;;;4929456;28;20114;-80
2023/02/10 10:12:19;;;;;;;9.60;4.80;;;7.00;58.90;;;;;;4928327;29;20036;-76
2023/02/10 10:14:46;;;;;;;6.45;3.60;;;7.10;58.80;;;;;;4943960;28;20078;-89
2023/02/10 10:17:17;;;;;;;13.23;4.10;;;7.30;59.10;;;;;;4937898;29;20510;-78
2023/02/10 10:20:01;;;;;;;9.93;3.60;;;7.40;59.70;;;;;;4927327;29;20028;-75
2023/02/10 10:22:53;;;;;;;7.35;4.03;;;7.60;59.20;;;;;;4928009;29;20091;-79
2023/02/10 10:25:50;;;;;;;8.95;3.92;;;7.80;59.30;;;;;;4920137;29;20075;-78
2023/02/10 10:28:37;;;;;;;6.22;2.70;;;7.90;59.20;;;;;;4917470;29;20067;-79
2023/02/10 10:31:12;;;;;;;9.45;3.08;;;8.10;59.30;;;;;;4929324;29;20087;-79
2023/02/10 10:33:56;;;;;;;7.88;3.05;;;8.30;59.40;;;;;;4927654;29;20039;-78
2023/02/10 10:36:45;;;;;;;9.95;3.65;;;8.50;59.60;;;;;;4913985;29;20062;-80
2023/02/10 10:39:39;;;;;;;10.30;3.58;;;8.70;59.50;;;;;;4927538;29;20151;-91
2023/02/10 10:42:25;;;;;;;10.15;2.60;;;8.90;59.60;;;;;;4928209;29;20055;-81
2023/02/10 10:44:57;;;;;;;6.95;2.90;;;9.10;59.60;;;;;;4931558;29;20038;-81
2023/02/10 10:47:41;;;;;;;10.27;3.60;;;9.30;59.60;;;;;;4929275;29;20036;-83
2023/02/10 10:50:14;;;;;;;8.10;3.28;;;9.50;59.60;;;;;;4922492;29;20500;-81
2023/02/10 10:52:41;;;;;;;8.25;2.63;;;9.70;59.60;;;;;;4928797;29;20179;-81
2023/02/10 10:55:43;;;;;;;12.30;3.10;;;9.90;59.70;;;;;;4926147;29;20218;-78
2023/02/10 10:58:31;;;;;;;8.70;2.60;;;10.00;59.50;;;;;;4920339;29;20039;-79
2023/02/10 11:01:00;;;;;;;8.35;3.05;;;10.20;59.50;;;;;;4923553;29;20095;-79
2023/02/10 11:03:27;;;;;;;6.38;2.20;;;10.30;59.40;;;;;;4928730;29;20089;-80
2023/02/10 11:06:15;;;;;;;7.00;2.30;;;10.40;59.40;;;;;;4921248;29;20460;-79
2023/02/10 11:08:58;;;;;;;7.97;2.58;;;10.50;59.30;;;;;;4922414;29;20039;-80
2023/02/10 11:11:37;;;;;;;9.10;2.65;;;10.70;59.60;;;;;;4925327;29;20134;-80
2023/02/10 11:14:20;;;;;;;7.57;1.98;;;10.70;59.40;;;;;;4928132;29;20224;-80
2023/02/10 11:16:51;;;;;;;3.47;1.88;;;10.80;59.40;;;;;;4916267;29;20063;-80
2023/02/10 11:19:28;;;;;;;6.35;2.05;;;10.80;59.30;;;;;;4929455;29;20066;-81
2023/02/10 11:21:54;;;;;;;6.70;2.10;;;10.90;59.30;;;;;;4935227;29;20039;-78
2023/02/10 11:24:31;;;;;;;4.95;1.63;;;11.00;59.40;;;;;;4930047;28;20451;-79
2023/02/10 11:27:06;;;;;;;6.13;1.98;;;11.00;59.30;;;;;;4930002;29;20031;-80
2023/02/10 11:29:39;;;;;;;9.13;2.70;;;11.10;59.40;;;;;;4926655;28;20506;-79
2023/02/10 11:32:06;;;;;;;4.43;1.65;;;11.20;59.50;;;;;;4925878;29;20138;-80
2023/02/10 11:34:44;;;;;;;8.15;2.70;;;11.20;59.30;;;;;;4921601;29;20032;-80
2023/02/10 11:37:13;;;;;;;4.45;1.73;;;11.30;59.20;;;;;;4921804;29;20050;-81
2023/02/10 11:39:43;;;;;;;3.15;1.55;;;11.40;59.20;;;;;;4925206;29;20024;-82
2023/02/10 11:42:26;;;;;;;4.35;1.83;;;11.50;59.20;;;;;;4934890;29;20047;-81
2023/02/10 11:45:08;;;;;;;4.77;1.80;;;11.60;59.10;;;;;;4935194;29;20043;-84
2023/02/10 11:47:34;;;;;;;4.22;1.77;;;11.70;59.10;;;;;;4912574;29;20285;-83
2023/02/10 11:50:00;;;;;;;5.85;1.77;;;11.90;59.30;;;;;;4930754;29;20397;-80
2023/02/10 11:52:33;;;;;;;2.72;1.27;;;12.00;59.30;;;;;;4935801;29;20046;-83
2023/02/10 11:54:59;;;;;;;4.88;1.58;;;12.20;59.30;;;;;;4931701;28;20032;-82
2023/02/10 12:00:34;;;;;;;5.95;1.67;;;12.50;59.20;;;;;;4933858;29;20094;-82
2023/02/10 12:03:05;;;;;;;7.05;1.80;;;12.60;59.00;;;;;;4949315;28;20648;-79
2023/02/10 12:06:06;;;;;;;8.13;2.40;;;12.70;58.80;;;;;;4927696;29;20074;-82
2023/02/10 12:08:42;;;;;;;3.58;1.95;;;12.70;58.30;;;;;;4929446;29;20027;-79
2023/02/10 12:11:39;;;;;;;9.70;2.95;;;12.60;58.20;;;;;;4927384;29;20073;-77
2023/02/10 12:14:43;;;;;;;7.28;2.08;;;12.50;57.90;;;;;;4932611;28;20035;-81
2023/02/10 12:17:24;;;;;;;6.10;2.22;;;12.40;57.90;;;;;;4936954;28;20039;-79
2023/02/10 12:20:16;;;;;;;5.18;1.63;;;12.40;58.20;;;;;;4913916;29;20054;-79
2023/02/10 12:23:07;;;;;;;4.85;2.10;;;12.30;58.10;;;;;;4933632;29;20447;-80
2023/02/10 12:25:46;;;;;;;6.10;2.00;;;12.20;57.90;;;;;;4937685;28;20032;-82
2023/02/10 12:28:18;;;;;;;7.45;2.72;;;12.20;58.00;;;;;;4923360;29;20089;-79
2023/02/10 12:31:12;;;;;;;7.82;3.17;;;12.20;58.00;;;;;;4934826;29;20040;-79
2023/02/10 12:34:04;;;;;;;8.90;3.13;;;12.20;58.00;;;;;;4946358;29;20039;-81
2023/02/10 12:36:45;;;;;;;5.53;1.98;;;12.30;58.10;;;;;;4941154;29;20036;-82
2023/02/10 12:39:43;;;;;;;7.47;2.50;;;12.40;58.20;;;;;;4937354;29;20463;-81
2023/02/10 12:42:28;;;;;;;12.05;3.08;;;12.50;58.20;;;;;;4939026;29;20046;-86
2023/02/10 12:45:01;;;;;;;8.20;2.95;;;12.70;58.50;;;;;;4951006;28;20035;-77
2023/02/10 12:47:41;;;;;;;7.13;2.72;;;13.00;58.90;;;;;;4942701;29;20602;-77
2023/02/10 12:50:49;;;;;;;7.32;2.80;;;13.40;59.30;;;;;;4939720;29;20091;-85
2023/02/10 12:53:26;;;;;;;12.00;4.07;;;13.80;59.40;;;;;;4889631;29;20035;-86
2023/02/10 12:56:14;;;;;;;5.50;2.97;;;14.30;59.40;;;;;;4908068;29;20087;-87
2023/02/10 12:58:47;;;;;;;7.43;3.25;;;14.60;59.40;;;;;;4931361;29;20050;-87
2023/02/10 13:01:39;;;;;;;6.78;2.55;;;15.00;59.40;;;;;;4954205;29;20654;-83
2023/02/10 13:04:14;;;;;;;6.20;2.80;;;15.30;59.30;;;;;;4930677;29;20121;-79
2023/02/10 13:06:47;;;;;;;7.57;2.45;;;15.50;59.30;;;;;;4944958;29;20036;-80
2023/02/10 13:09:17;;;;;;;;;;;15.80;59.40;;;;;;4945753;28;20031;-78
2023/02/10 13:11:47;;;;;;;3.53;1.73;;;16.00;59.40;;;;;;4939914;29;19986;-79
2023/02/10 13:14:24;;;;;;;6.80;2.10;;;16.20;59.40;;;;;;4950044;29;20028;-80